sensor_id;sensor_type;location;lat;lon;timestamp;P1;durP1;ratioP1;P2;durP2;ratioP2
55372;SDS011;70018;47.838;16.490;2024-03-23T00:53:47;1.33;;;1.00;;
55372;SDS011;70018;47.838;16.490;2024-03-23T00:56:13;2.50;;;1.63;;
55372;SDS011;70018;47.838;16.490;2024-03-23T00:58:39;1.50;;;1.00;;
55372;SDS011;70018;47.838;16.490;2024-03-23T01:01:05;2.30;;;1.38;;
55372;SDS011;70018;47.838;16.490;2024-03-23T01:03:30;2.42;;;1.25;;
55372;SDS011;70018;47.838;16.490;2024-03-23T01:05:59;2.33;;;1.52;;
55372;SDS011;70018;47.838;16.490;2024-03-23T01:08:25;1.88;;;1.30;;
55372;SDS011;70018;47.838;16.490;2024-03-23T01:11:01;2.00;;;1.33;;
55372;SDS011;70018;47.838;16.490;2024-03-23T01:13:28;1.10;;;0.90;;
55372;SDS011;70018;47.838;16.490;2024-03-23T01:15:54;2.22;;;0.93;;
55372;SDS011;70018;47.838;16.490;2024-03-23T01:18:21;1.27;;;0.80;;
55372;SDS011;70018;47.838;16.490;2024-03-23T01:20:48;1.00;;;0.77;;
55372;SDS011;70018;47.838;16.490;2024-03-23T01:23:14;2.45;;;0.95;;
55372;SDS011;70018;47.838;16.490;2024-03-23T01:25:40;0.90;;;0.75;;
55372;SDS011;70018;47.838;16.490;2024-03-23T01:28:06;3.47;;;0.70;;
55372;SDS011;70018;47.838;16.490;2024-03-23T01:30:32;1.05;;;0.80;;
55372;SDS011;70018;47.838;16.490;2024-03-23T01:32:59;1.58;;;1.00;;
55372;SDS011;70018;47.838;16.490;2024-03-23T01:35:25;0.95;;;0.70;;
55372;SDS011;70018;47.838;16.490;2024-03-23T01:37:50;1.00;;;0.70;;
55372;SDS011;70018;47.838;16.490;2024-03-23T01:40:16;1.63;;;1.08;;
55372;SDS011;70018;47.838;16.490;2024-03-23T01:42:42;1.35;;;0.60;;
55372;SDS011;70018;47.838;16.490;2024-03-23T01:45:08;0.85;;;0.80;;
55372;SDS011;70018;47.838;16.490;2024-03-23T01:47:35;2.15;;;0.88;;
55372;SDS011;70018;47.838;16.490;2024-03-23T01:50:01;1.25;;;1.00;;
55372;SDS011;70018;47.838;16.490;2024-03-23T01:52:27;1.98;;;1.30;;
55372;SDS011;70018;47.838;16.490;2024-03-23T01:54:53;2.08;;;1.20;;
55372;SDS011;70018;47.838;16.490;2024-03-23T01:57:21;1.85;;;1.45;;
55372;SDS011;70018;47.838;16.490;2024-03-23T01:59:48;1.48;;;1.08;;
55372;SDS011;70018;47.838;16.490;2024-03-23T02:02:14;2.60;;;1.35;;
55372;SDS011;70018;47.838;16.490;2024-03-23T02:04:40;4.90;;;1.20;;
55372;SDS011;70018;47.838;16.490;2024-03-23T02:07:06;1.90;;;0.90;;
55372;SDS011;70018;47.838;16.490;2024-03-23T02:09:32;0.90;;;0.80;;
55372;SDS011;70018;47.838;16.490;2024-03-23T02:11:58;1.90;;;0.90;;
55372;SDS011;70018;47.838;16.490;2024-03-23T02:14:24;2.00;;;1.08;;
55372;SDS011;70018;47.838;16.490;2024-03-23T02:16:50;1.65;;;1.10;;
55372;SDS011;70018;47.838;16.490;2024-03-23T02:19:15;1.58;;;1.35;;
55372;SDS011;70018;47.838;16.490;2024-03-23T02:21:41;1.38;;;0.93;;
55372;SDS011;70018;47.838;16.490;2024-03-23T02:24:07;1.95;;;1.30;;
55372;SDS011;70018;47.838;16.490;2024-03-23T02:26:32;0.98;;;0.82;;
55372;SDS011;70018;47.838;16.490;2024-03-23T02:28:58;1.35;;;0.90;;
55372;SDS011;70018;47.838;16.490;2024-03-23T02:31:24;2.42;;;1.65;;
55372;SDS011;70018;47.838;16.490;2024-03-23T02:33:49;1.33;;;1.08;;
55372;SDS011;70018;47.838;16.490;2024-03-23T02:36:15;3.33;;;1.35;;
55372;SDS011;70018;47.838;16.490;2024-03-23T02:38:41;1.83;;;1.35;;
55372;SDS011;70018;47.838;16.490;2024-03-23T02:41:06;3.17;;;1.33;;
55372;SDS011;70018;47.838;16.490;2024-03-23T02:43:32;1.17;;;1.00;;
55372;SDS011;70018;47.838;16.490;2024-03-23T02:45:58;1.40;;;0.77;;
55372;SDS011;70018;47.838;16.490;2024-03-23T02:48:24;1.45;;;0.93;;
55372;SDS011;70018;47.838;16.490;2024-03-23T02:50:50;1.75;;;1.45;;
55372;SDS011;70018;47.838;16.490;2024-03-23T02:53:16;2.67;;;1.67;;
55372;SDS011;70018;47.838;16.490;2024-03-23T02:55:42;6.15;;;2.13;;
55372;SDS011;70018;47.838;16.490;2024-03-23T02:58:08;4.15;;;2.05;;
55372;SDS011;70018;47.838;16.490;2024-03-23T03:00:34;3.05;;;1.95;;
55372;SDS011;70018;47.838;16.490;2024-03-23T03:02:59;3.60;;;1.60;;
55372;SDS011;70018;47.838;16.490;2024-03-23T03:05:25;1.30;;;1.00;;
55372;SDS011;70018;47.838;16.490;2024-03-23T03:07:51;1.40;;;0.95;;
55372;SDS011;70018;47.838;16.490;2024-03-23T03:10:16;1.88;;;0.80;;
55372;SDS011;70018;47.838;16.490;2024-03-23T03:12:42;1.77;;;1.30;;
55372;SDS011;70018;47.838;16.490;2024-03-23T03:15:08;1.60;;;1.27;;
55372;SDS011;70018;47.838;16.490;2024-03-23T03:17:34;2.17;;;1.10;;
55372;SDS011;70018;47.838;16.490;2024-03-23T03:20:00;1.42;;;1.10;;
55372;SDS011;70018;47.838;16.490;2024-03-23T03:22:26;2.47;;;1.10;;
55372;SDS011;70018;47.838;16.490;2024-03-23T03:24:51;2.38;;;0.80;;
55372;SDS011;70018;47.838;16.490;2024-03-23T03:27:17;0.60;;;0.57;;
55372;SDS011;70018;47.838;16.490;2024-03-23T03:29:43;0.95;;;0.68;;
55372;SDS011;70018;47.838;16.490;2024-03-23T03:32:08;1.65;;;0.70;;
55372;SDS011;70018;47.838;16.490;2024-03-23T03:34:34;0.80;;;0.70;;
55372;SDS011;70018;47.838;16.490;2024-03-23T03:37:00;2.25;;;1.33;;
55372;SDS011;70018;47.838;16.490;2024-03-23T03:39:25;1.75;;;0.88;;
55372;SDS011;70018;47.838;16.490;2024-03-23T03:41:51;4.18;;;0.90;;
55372;SDS011;70018;47.838;16.490;2024-03-23T03:44:17;1.85;;;1.05;;
55372;SDS011;70018;47.838;16.490;2024-03-23T03:46:43;1.17;;;0.77;;
55372;SDS011;70018;47.838;16.490;2024-03-23T03:49:09;1.02;;;0.85;;
55372;SDS011;70018;47.838;16.490;2024-03-23T03:51:35;2.67;;;1.48;;
55372;SDS011;70018;47.838;16.490;2024-03-23T03:54:00;2.10;;;1.00;;
55372;SDS011;70018;47.838;16.490;2024-03-23T03:56:26;1.50;;;1.08;;
55372;SDS011;70018;47.838;16.490;2024-03-23T03:58:53;2.35;;;1.25;;
55372;SDS011;70018;47.838;16.490;2024-03-23T04:01:19;2.15;;;1.30;;
55372;SDS011;70018;47.838;16.490;2024-03-23T04:03:45;1.98;;;1.02;;
55372;SDS011;70018;47.838;16.490;2024-03-23T04:06:11;2.88;;;1.42;;
55372;SDS011;70018;47.838;16.490;2024-03-23T04:08:37;1.05;;;0.88;;
55372;SDS011;70018;47.838;16.490;2024-03-23T04:11:03;1.65;;;1.42;;
55372;SDS011;70018;47.838;16.490;2024-03-23T04:13:29;2.40;;;1.77;;
55372;SDS011;70018;47.838;16.490;2024-03-23T04:15:55;2.70;;;1.83;;
55372;SDS011;70018;47.838;16.490;2024-03-23T04:18:21;2.72;;;1.75;;
55372;SDS011;70018;47.838;16.490;2024-03-23T04:20:48;3.42;;;1.65;;
55372;SDS011;70018;47.838;16.490;2024-03-23T04:23:14;2.35;;;1.30;;
55372;SDS011;70018;47.838;16.490;2024-03-23T04:25:40;1.70;;;1.33;;
55372;SDS011;70018;47.838;16.490;2024-03-23T04:28:05;2.03;;;1.20;;
55372;SDS011;70018;47.838;16.490;2024-03-23T04:30:32;1.73;;;1.27;;
55372;SDS011;70018;47.838;16.490;2024-03-23T04:32:57;1.63;;;1.20;;
55372;SDS011;70018;47.838;16.490;2024-03-23T04:35:24;0.90;;;0.70;;
55372;SDS011;70018;47.838;16.490;2024-03-23T04:37:53;1.85;;;0.95;;
55372;SDS011;70018;47.838;16.490;2024-03-23T04:40:19;1.42;;;1.15;;
55372;SDS011;70018;47.838;16.490;2024-03-23T04:42:44;1.00;;;0.80;;
55372;SDS011;70018;47.838;16.490;2024-03-23T04:45:10;1.67;;;0.93;;
55372;SDS011;70018;47.838;16.490;2024-03-23T04:47:36;2.78;;;0.80;;
55372;SDS011;70018;47.838;16.490;2024-03-23T04:50:03;1.48;;;1.02;;
55372;SDS011;70018;47.838;16.490;2024-03-23T04:52:29;1.02;;;0.77;;
55372;SDS011;70018;47.838;16.490;2024-03-23T04:54:55;1.35;;;0.90;;
55372;SDS011;70018;47.838;16.490;2024-03-23T04:57:21;2.25;;;1.00;;
55372;SDS011;70018;47.838;16.490;2024-03-23T04:59:47;1.83;;;1.20;;
55372;SDS011;70018;47.838;16.490;2024-03-23T05:02:13;0.68;;;0.68;;
55372;SDS011;70018;47.838;16.490;2024-03-23T05:04:40;0.82;;;0.77;;
55372;SDS011;70018;47.838;16.490;2024-03-23T05:07:06;1.10;;;0.80;;
55372;SDS011;70018;47.838;16.490;2024-03-23T05:09:32;6.18;;;1.10;;
55372;SDS011;70018;47.838;16.490;2024-03-23T05:11:59;1.88;;;1.33;;
55372;SDS011;70018;47.838;16.490;2024-03-23T05:14:28;1.60;;;0.80;;
55372;SDS011;70018;47.838;16.490;2024-03-23T05:16:53;1.23;;;0.75;;
55372;SDS011;70018;47.838;16.490;2024-03-23T05:19:19;0.75;;;0.70;;
55372;SDS011;70018;47.838;16.490;2024-03-23T05:21:45;0.85;;;0.60;;
55372;SDS011;70018;47.838;16.490;2024-03-23T05:24:11;0.60;;;0.60;;
55372;SDS011;70018;47.838;16.490;2024-03-23T05:26:37;1.63;;;0.90;;
55372;SDS011;70018;47.838;16.490;2024-03-23T05:29:03;1.08;;;0.88;;
55372;SDS011;70018;47.838;16.490;2024-03-23T05:31:30;1.73;;;1.30;;
55372;SDS011;70018;47.838;16.490;2024-03-23T05:33:56;1.20;;;0.80;;
55372;SDS011;70018;47.838;16.490;2024-03-23T05:36:22;0.60;;;0.60;;
55372;SDS011;70018;47.838;16.490;2024-03-23T05:38:49;1.95;;;1.10;;
55372;SDS011;70018;47.838;16.490;2024-03-23T05:41:15;1.02;;;0.80;;
55372;SDS011;70018;47.838;16.490;2024-03-23T05:43:41;1.45;;;0.90;;
55372;SDS011;70018;47.838;16.490;2024-03-23T05:46:07;1.52;;;1.08;;
55372;SDS011;70018;47.838;16.490;2024-03-23T05:48:34;1.30;;;0.98;;
55372;SDS011;70018;47.838;16.490;2024-03-23T05:50:59;2.13;;;1.25;;
55372;SDS011;70018;47.838;16.490;2024-03-23T05:53:26;3.55;;;2.03;;
55372;SDS011;70018;47.838;16.490;2024-03-23T05:55:59;3.95;;;1.50;;
55372;SDS011;70018;47.838;16.490;2024-03-23T05:58:29;4.78;;;2.85;;
55372;SDS011;70018;47.838;16.490;2024-03-23T06:01:01;5.45;;;2.50;;
55372;SDS011;70018;47.838;16.490;2024-03-23T06:03:27;3.40;;;2.15;;
55372;SDS011;70018;47.838;16.490;2024-03-23T06:05:54;2.67;;;1.65;;
55372;SDS011;70018;47.838;16.490;2024-03-23T06:08:20;2.13;;;1.58;;
55372;SDS011;70018;47.838;16.490;2024-03-23T06:10:47;4.10;;;2.45;;
55372;SDS011;70018;47.838;16.490;2024-03-23T06:13:13;3.92;;;1.85;;
55372;SDS011;70018;47.838;16.490;2024-03-23T06:15:39;4.80;;;2.58;;
55372;SDS011;70018;47.838;16.490;2024-03-23T06:18:05;2.35;;;1.70;;
55372;SDS011;70018;47.838;16.490;2024-03-23T06:20:33;2.97;;;2.22;;
55372;SDS011;70018;47.838;16.490;2024-03-23T06:22:59;2.72;;;1.90;;
55372;SDS011;70018;47.838;16.490;2024-03-23T06:25:28;2.38;;;1.80;;
55372;SDS011;70018;47.838;16.490;2024-03-23T06:27:54;3.03;;;2.00;;
55372;SDS011;70018;47.838;16.490;2024-03-23T06:30:20;3.65;;;1.75;;
55372;SDS011;70018;47.838;16.490;2024-03-23T06:32:46;5.97;;;2.00;;
55372;SDS011;70018;47.838;16.490;2024-03-23T06:35:12;2.60;;;1.67;;
55372;SDS011;70018;47.838;16.490;2024-03-23T06:37:37;3.25;;;2.15;;
55372;SDS011;70018;47.838;16.490;2024-03-23T06:40:04;2.92;;;1.95;;
55372;SDS011;70018;47.838;16.490;2024-03-23T06:42:33;2.97;;;1.52;;
55372;SDS011;70018;47.838;16.490;2024-03-23T06:44:59;4.45;;;3.03;;
55372;SDS011;70018;47.838;16.490;2024-03-23T06:47:25;3.38;;;2.13;;
55372;SDS011;70018;47.838;16.490;2024-03-23T06:49:51;2.53;;;1.83;;
55372;SDS011;70018;47.838;16.490;2024-03-23T06:52:16;3.55;;;2.30;;
55372;SDS011;70018;47.838;16.490;2024-03-23T06:54:42;2.95;;;1.95;;
55372;SDS011;70018;47.838;16.490;2024-03-23T06:57:10;3.00;;;1.67;;
55372;SDS011;70018;47.838;16.490;2024-03-23T06:59:37;2.85;;;1.73;;
55372;SDS011;70018;47.838;16.490;2024-03-23T07:02:04;3.38;;;2.25;;
55372;SDS011;70018;47.838;16.490;2024-03-23T07:04:30;3.55;;;2.33;;
55372;SDS011;70018;47.838;16.490;2024-03-23T07:06:56;2.97;;;1.85;;
55372;SDS011;70018;47.838;16.490;2024-03-23T07:09:22;2.95;;;1.88;;
55372;SDS011;70018;47.838;16.490;2024-03-23T07:11:53;2.90;;;1.83;;
55372;SDS011;70018;47.838;16.490;2024-03-23T07:14:19;2.90;;;1.58;;
55372;SDS011;70018;47.838;16.490;2024-03-23T07:16:45;3.42;;;2.10;;
55372;SDS011;70018;47.838;16.490;2024-03-23T07:19:11;3.60;;;2.05;;
55372;SDS011;70018;47.838;16.490;2024-03-23T07:21:36;2.97;;;2.10;;
55372;SDS011;70018;47.838;16.490;2024-03-23T07:24:02;3.97;;;2.00;;
55372;SDS011;70018;47.838;16.490;2024-03-23T07:26:28;2.58;;;2.25;;
55372;SDS011;70018;47.838;16.490;2024-03-23T07:28:54;3.42;;;2.05;;
55372;SDS011;70018;47.838;16.490;2024-03-23T07:31:19;3.35;;;1.88;;
55372;SDS011;70018;47.838;16.490;2024-03-23T07:33:47;3.67;;;2.28;;
55372;SDS011;70018;47.838;16.490;2024-03-23T07:36:14;4.53;;;2.05;;
55372;SDS011;70018;47.838;16.490;2024-03-23T07:38:40;3.03;;;1.95;;
55372;SDS011;70018;47.838;16.490;2024-03-23T07:41:07;2.00;;;1.70;;
55372;SDS011;70018;47.838;16.490;2024-03-23T07:43:37;3.20;;;2.13;;
55372;SDS011;70018;47.838;16.490;2024-03-23T07:46:04;5.50;;;2.33;;
55372;SDS011;70018;47.838;16.490;2024-03-23T07:48:30;2.45;;;1.60;;
55372;SDS011;70018;47.838;16.490;2024-03-23T07:51:00;6.00;;;2.45;;
55372;SDS011;70018;47.838;16.490;2024-03-23T07:53:27;4.60;;;2.83;;
55372;SDS011;70018;47.838;16.490;2024-03-23T07:56:06;4.30;;;2.25;;
55372;SDS011;70018;47.838;16.490;2024-03-23T07:58:35;4.47;;;2.80;;
55372;SDS011;70018;47.838;16.490;2024-03-23T08:01:19;2.85;;;1.98;;
55372;SDS011;70018;47.838;16.490;2024-03-23T08:03:45;3.83;;;2.13;;
55372;SDS011;70018;47.838;16.490;2024-03-23T08:06:15;4.63;;;2.88;;
55372;SDS011;70018;47.838;16.490;2024-03-23T08:08:44;6.43;;;2.78;;
55372;SDS011;70018;47.838;16.490;2024-03-23T08:11:10;3.20;;;1.95;;
55372;SDS011;70018;47.838;16.490;2024-03-23T08:13:38;3.00;;;2.15;;
55372;SDS011;70018;47.838;16.490;2024-03-23T08:16:05;3.45;;;2.22;;
55372;SDS011;70018;47.838;16.490;2024-03-23T08:18:31;3.38;;;2.22;;
55372;SDS011;70018;47.838;16.490;2024-03-23T08:20:57;2.45;;;1.70;;
55372;SDS011;70018;47.838;16.490;2024-03-23T08:23:24;4.63;;;1.58;;
55372;SDS011;70018;47.838;16.490;2024-03-23T08:25:51;5.30;;;2.13;;
55372;SDS011;70018;47.838;16.490;2024-03-23T08:28:17;4.20;;;2.63;;
55372;SDS011;70018;47.838;16.490;2024-03-23T08:30:43;5.53;;;2.13;;
55372;SDS011;70018;47.838;16.490;2024-03-23T08:33:09;3.08;;;2.13;;
55372;SDS011;70018;47.838;16.490;2024-03-23T08:35:34;3.65;;;2.30;;
55372;SDS011;70018;47.838;16.490;2024-03-23T08:38:00;5.55;;;2.92;;
55372;SDS011;70018;47.838;16.490;2024-03-23T08:40:26;3.40;;;2.30;;
55372;SDS011;70018;47.838;16.490;2024-03-23T08:42:52;5.60;;;3.05;;
55372;SDS011;70018;47.838;16.490;2024-03-23T08:45:17;5.00;;;2.55;;
55372;SDS011;70018;47.838;16.490;2024-03-23T08:47:43;4.65;;;2.78;;
55372;SDS011;70018;47.838;16.490;2024-03-23T08:50:09;4.57;;;3.00;;
55372;SDS011;70018;47.838;16.490;2024-03-23T08:52:34;4.15;;;3.00;;
55372;SDS011;70018;47.838;16.490;2024-03-23T08:55:00;4.05;;;1.98;;
55372;SDS011;70018;47.838;16.490;2024-03-23T08:57:26;3.45;;;1.90;;
55372;SDS011;70018;47.838;16.490;2024-03-23T08:59:52;2.55;;;1.77;;
55372;SDS011;70018;47.838;16.490;2024-03-23T09:02:18;13.48;;;2.30;;
55372;SDS011;70018;47.838;16.490;2024-03-23T09:04:44;1.83;;;1.23;;
55372;SDS011;70018;47.838;16.490;2024-03-23T09:07:10;2.30;;;1.60;;
55372;SDS011;70018;47.838;16.490;2024-03-23T09:09:38;3.35;;;1.25;;
55372;SDS011;70018;47.838;16.490;2024-03-23T09:12:05;6.00;;;1.70;;
55372;SDS011;70018;47.838;16.490;2024-03-23T09:14:32;4.47;;;2.65;;
55372;SDS011;70018;47.838;16.490;2024-03-23T09:16:58;3.88;;;2.03;;
55372;SDS011;70018;47.838;16.490;2024-03-23T09:19:26;3.30;;;2.10;;
55372;SDS011;70018;47.838;16.490;2024-03-23T09:21:53;3.85;;;1.80;;
55372;SDS011;70018;47.838;16.490;2024-03-23T09:24:19;3.47;;;2.10;;
55372;SDS011;70018;47.838;16.490;2024-03-23T09:26:45;4.82;;;2.50;;
55372;SDS011;70018;47.838;16.490;2024-03-23T09:29:10;4.47;;;1.90;;
55372;SDS011;70018;47.838;16.490;2024-03-23T09:31:36;4.10;;;1.88;;
55372;SDS011;70018;47.838;16.490;2024-03-23T09:34:03;2.90;;;2.05;;
55372;SDS011;70018;47.838;16.490;2024-03-23T09:36:29;3.17;;;2.10;;
55372;SDS011;70018;47.838;16.490;2024-03-23T09:38:55;3.40;;;2.13;;
55372;SDS011;70018;47.838;16.490;2024-03-23T09:41:23;3.72;;;2.95;;
55372;SDS011;70018;47.838;16.490;2024-03-23T09:43:52;3.53;;;1.58;;
55372;SDS011;70018;47.838;16.490;2024-03-23T09:46:18;3.42;;;1.85;;
55372;SDS011;70018;47.838;16.490;2024-03-23T09:48:44;4.40;;;2.97;;
55372;SDS011;70018;47.838;16.490;2024-03-23T09:51:12;3.97;;;2.40;;
55372;SDS011;70018;47.838;16.490;2024-03-23T09:53:38;4.75;;;2.92;;
55372;SDS011;70018;47.838;16.490;2024-03-23T09:56:04;2.33;;;1.80;;
55372;SDS011;70018;47.838;16.490;2024-03-23T09:58:30;3.13;;;2.15;;
55372;SDS011;70018;47.838;16.490;2024-03-23T10:00:57;5.95;;;3.45;;
55372;SDS011;70018;47.838;16.490;2024-03-23T10:03:24;6.80;;;4.80;;
55372;SDS011;70018;47.838;16.490;2024-03-23T10:06:00;6.03;;;3.58;;
55372;SDS011;70018;47.838;16.490;2024-03-23T10:08:30;7.15;;;4.38;;
55372;SDS011;70018;47.838;16.490;2024-03-23T10:10:56;4.22;;;3.15;;
55372;SDS011;70018;47.838;16.490;2024-03-23T10:13:26;3.80;;;2.90;;
55372;SDS011;70018;47.838;16.490;2024-03-23T10:15:56;6.63;;;3.53;;
55372;SDS011;70018;47.838;16.490;2024-03-23T10:18:23;6.53;;;3.20;;
55372;SDS011;70018;47.838;16.490;2024-03-23T10:23:31;3.90;;;2.42;;
55372;SDS011;70018;47.838;16.490;2024-03-23T10:26:16;3.15;;;2.10;;
55372;SDS011;70018;47.838;16.490;2024-03-23T10:28:51;2.60;;;1.75;;
55372;SDS011;70018;47.838;16.490;2024-03-23T10:31:23;2.65;;;1.80;;
55372;SDS011;70018;47.838;16.490;2024-03-23T10:33:49;3.25;;;2.10;;
55372;SDS011;70018;47.838;16.490;2024-03-23T10:36:15;6.97;;;3.15;;
55372;SDS011;70018;47.838;16.490;2024-03-23T10:38:42;5.68;;;4.03;;
55372;SDS011;70018;47.838;16.490;2024-03-23T10:41:10;3.83;;;2.45;;
55372;SDS011;70018;47.838;16.490;2024-03-23T10:43:36;6.07;;;3.47;;
55372;SDS011;70018;47.838;16.490;2024-03-23T10:46:03;4.75;;;2.65;;
55372;SDS011;70018;47.838;16.490;2024-03-23T10:48:30;5.80;;;3.30;;
55372;SDS011;70018;47.838;16.490;2024-03-23T10:50:56;7.28;;;3.55;;
55372;SDS011;70018;47.838;16.490;2024-03-23T10:53:25;4.93;;;3.38;;
55372;SDS011;70018;47.838;16.490;2024-03-23T10:55:51;5.65;;;3.15;;
55372;SDS011;70018;47.838;16.490;2024-03-23T10:58:20;3.85;;;2.95;;
55372;SDS011;70018;47.838;16.490;2024-03-23T11:00:50;4.47;;;2.55;;
55372;SDS011;70018;47.838;16.490;2024-03-23T11:03:49;4.75;;;2.17;;
55372;SDS011;70018;47.838;16.490;2024-03-23T11:06:12;4.57;;;2.38;;
55372;SDS011;70018;47.838;16.490;2024-03-23T11:09:04;4.18;;;2.50;;
55372;SDS011;70018;47.838;16.490;2024-03-23T11:11:49;3.47;;;2.17;;
55372;SDS011;70018;47.838;16.490;2024-03-23T11:14:21;4.07;;;2.72;;
55372;SDS011;70018;47.838;16.490;2024-03-23T11:16:51;5.97;;;3.00;;
55372;SDS011;70018;47.838;16.490;2024-03-23T11:19:35;5.20;;;2.38;;
55372;SDS011;70018;47.838;16.490;2024-03-23T11:22:02;4.43;;;3.00;;
55372;SDS011;70018;47.838;16.490;2024-03-23T11:24:28;3.63;;;2.45;;
55372;SDS011;70018;47.838;16.490;2024-03-23T11:26:54;3.63;;;2.00;;
55372;SDS011;70018;47.838;16.490;2024-03-23T11:29:20;2.40;;;1.55;;
55372;SDS011;70018;47.838;16.490;2024-03-23T11:31:50;4.00;;;2.85;;
55372;SDS011;70018;47.838;16.490;2024-03-23T11:34:19;5.07;;;2.60;;
55372;SDS011;70018;47.838;16.490;2024-03-23T11:36:46;3.85;;;2.60;;
55372;SDS011;70018;47.838;16.490;2024-03-23T11:39:16;2.75;;;1.98;;
55372;SDS011;70018;47.838;16.490;2024-03-23T11:41:47;3.63;;;2.25;;
55372;SDS011;70018;47.838;16.490;2024-03-23T11:44:21;4.47;;;2.40;;
55372;SDS011;70018;47.838;16.490;2024-03-23T11:46:48;3.03;;;2.00;;
55372;SDS011;70018;47.838;16.490;2024-03-23T11:49:27;3.15;;;1.90;;
55372;SDS011;70018;47.838;16.490;2024-03-23T11:51:55;2.72;;;1.85;;
55372;SDS011;70018;47.838;16.490;2024-03-23T11:54:25;3.05;;;1.83;;
55372;SDS011;70018;47.838;16.490;2024-03-23T11:59:32;2.03;;;1.10;;
55372;SDS011;70018;47.838;16.490;2024-03-23T12:02:09;1.83;;;1.25;;
55372;SDS011;70018;47.838;16.490;2024-03-23T12:04:42;0.98;;;0.70;;
55372;SDS011;70018;47.838;16.490;2024-03-23T12:07:17;1.45;;;1.00;;
55372;SDS011;70018;47.838;16.490;2024-03-23T12:09:44;1.48;;;0.90;;
55372;SDS011;70018;47.838;16.490;2024-03-23T12:12:14;0.98;;;0.68;;
55372;SDS011;70018;47.838;16.490;2024-03-23T12:14:44;1.00;;;0.70;;
55372;SDS011;70018;47.838;16.490;2024-03-23T12:17:13;2.05;;;0.77;;
55372;SDS011;70018;47.838;16.490;2024-03-23T12:19:40;1.95;;;0.80;;
55372;SDS011;70018;47.838;16.490;2024-03-23T12:22:07;1.48;;;0.65;;
55372;SDS011;70018;47.838;16.490;2024-03-23T12:24:34;0.40;;;0.40;;
55372;SDS011;70018;47.838;16.490;2024-03-23T12:27:03;0.30;;;0.30;;
55372;SDS011;70018;47.838;16.490;2024-03-23T12:29:30;0.57;;;0.50;;
55372;SDS011;70018;47.838;16.490;2024-03-23T12:31:59;1.10;;;0.52;;
55372;SDS011;70018;47.838;16.490;2024-03-23T12:34:26;1.42;;;0.57;;
55372;SDS011;70018;47.838;16.490;2024-03-23T12:36:52;0.52;;;0.35;;
55372;SDS011;70018;47.838;16.490;2024-03-23T12:39:17;0.73;;;0.50;;
55372;SDS011;70018;47.838;16.490;2024-03-23T12:41:44;1.08;;;0.73;;
55372;SDS011;70018;47.838;16.490;2024-03-23T12:44:09;0.35;;;0.35;;
55372;SDS011;70018;47.838;16.490;2024-03-23T12:46:40;0.32;;;0.30;;
55372;SDS011;70018;47.838;16.490;2024-03-23T12:49:06;1.00;;;0.70;;
55372;SDS011;70018;47.838;16.490;2024-03-23T12:51:32;1.95;;;0.45;;
55372;SDS011;70018;47.838;16.490;2024-03-23T12:53:58;0.52;;;0.40;;
55372;SDS011;70018;47.838;16.490;2024-03-23T12:56:24;0.70;;;0.60;;
55372;SDS011;70018;47.838;16.490;2024-03-23T12:58:50;1.05;;;0.30;;
55372;SDS011;70018;47.838;16.490;2024-03-23T13:01:19;0.70;;;0.52;;
55372;SDS011;70018;47.838;16.490;2024-03-23T13:03:48;0.60;;;0.50;;
55372;SDS011;70018;47.838;16.490;2024-03-23T13:06:15;0.45;;;0.45;;
55372;SDS011;70018;47.838;16.490;2024-03-23T13:08:41;0.52;;;0.40;;
55372;SDS011;70018;47.838;16.490;2024-03-23T13:11:08;1.48;;;0.57;;
55372;SDS011;70018;47.838;16.490;2024-03-23T13:13:36;1.13;;;0.52;;
55372;SDS011;70018;47.838;16.490;2024-03-23T13:16:02;0.28;;;0.28;;
55372;SDS011;70018;47.838;16.490;2024-03-23T13:18:31;0.35;;;0.35;;
55372;SDS011;70018;47.838;16.490;2024-03-23T13:20:57;0.50;;;0.40;;
55372;SDS011;70018;47.838;16.490;2024-03-23T13:23:24;0.60;;;0.60;;
55372;SDS011;70018;47.838;16.490;2024-03-23T13:25:53;1.35;;;0.70;;
55372;SDS011;70018;47.838;16.490;2024-03-23T13:28:20;1.45;;;0.60;;
55372;SDS011;70018;47.838;16.490;2024-03-23T13:30:53;4.32;;;0.73;;
55372;SDS011;70018;47.838;16.490;2024-03-23T13:33:20;2.38;;;0.70;;
55372;SDS011;70018;47.838;16.490;2024-03-23T13:35:50;2.83;;;0.60;;
55372;SDS011;70018;47.838;16.490;2024-03-23T13:40:52;0.45;;;0.40;;
55372;SDS011;70018;47.838;16.490;2024-03-23T13:43:20;1.33;;;0.55;;
55372;SDS011;70018;47.838;16.490;2024-03-23T13:45:50;2.20;;;0.30;;
55372;SDS011;70018;47.838;16.490;2024-03-23T13:48:22;0.68;;;0.40;;
55372;SDS011;70018;47.838;16.490;2024-03-23T13:51:04;0.63;;;0.35;;
55372;SDS011;70018;47.838;16.490;2024-03-23T13:53:30;0.90;;;0.60;;
55372;SDS011;70018;47.838;16.490;2024-03-23T13:55:59;0.95;;;0.50;;
55372;SDS011;70018;47.838;16.490;2024-03-23T13:58:26;1.55;;;0.68;;
55372;SDS011;70018;47.838;16.490;2024-03-23T14:00:51;0.75;;;0.40;;
55372;SDS011;70018;47.838;16.490;2024-03-23T14:03:18;0.40;;;0.40;;
55372;SDS011;70018;47.838;16.490;2024-03-23T14:05:44;0.30;;;0.30;;
55372;SDS011;70018;47.838;16.490;2024-03-23T14:08:10;2.92;;;0.50;;
55372;SDS011;70018;47.838;16.490;2024-03-23T14:10:36;0.52;;;0.40;;
55372;SDS011;70018;47.838;16.490;2024-03-23T14:13:06;1.50;;;0.50;;
55372;SDS011;70018;47.838;16.490;2024-03-23T14:15:32;0.20;;;0.20;;
55372;SDS011;70018;47.838;16.490;2024-03-23T14:17:58;0.80;;;0.40;;
55372;SDS011;70018;47.838;16.490;2024-03-23T14:20:24;0.88;;;0.45;;
55372;SDS011;70018;47.838;16.490;2024-03-23T14:22:51;1.20;;;0.50;;
55372;SDS011;70018;47.838;16.490;2024-03-23T14:25:17;4.93;;;0.60;;
55372;SDS011;70018;47.838;16.490;2024-03-23T14:27:44;0.85;;;0.50;;
55372;SDS011;70018;47.838;16.490;2024-03-23T14:30:10;0.28;;;0.28;;
55372;SDS011;70018;47.838;16.490;2024-03-23T14:32:37;0.40;;;0.35;;
55372;SDS011;70018;47.838;16.490;2024-03-23T14:35:04;0.55;;;0.22;;
55372;SDS011;70018;47.838;16.490;2024-03-23T14:37:30;0.30;;;0.30;;
55372;SDS011;70018;47.838;16.490;2024-03-23T14:39:56;0.55;;;0.47;;
55372;SDS011;70018;47.838;16.490;2024-03-23T14:42:22;0.75;;;0.40;;
55372;SDS011;70018;47.838;16.490;2024-03-23T14:44:49;0.52;;;0.50;;
55372;SDS011;70018;47.838;16.490;2024-03-23T14:47:15;0.50;;;0.50;;
55372;SDS011;70018;47.838;16.490;2024-03-23T14:49:43;2.00;;;0.68;;
55372;SDS011;70018;47.838;16.490;2024-03-23T14:52:18;0.65;;;0.40;;
55372;SDS011;70018;47.838;16.490;2024-03-23T14:54:45;0.57;;;0.50;;
55372;SDS011;70018;47.838;16.490;2024-03-23T14:57:11;0.80;;;0.43;;
55372;SDS011;70018;47.838;16.490;2024-03-23T14:59:37;2.10;;;0.82;;
55372;SDS011;70018;47.838;16.490;2024-03-23T15:02:04;0.90;;;0.75;;
55372;SDS011;70018;47.838;16.490;2024-03-23T15:04:30;0.85;;;0.50;;
55372;SDS011;70018;47.838;16.490;2024-03-23T15:06:56;0.63;;;0.50;;
55372;SDS011;70018;47.838;16.490;2024-03-23T15:09:22;2.90;;;0.55;;
55372;SDS011;70018;47.838;16.490;2024-03-23T15:11:47;0.47;;;0.47;;
55372;SDS011;70018;47.838;16.490;2024-03-23T15:14:13;0.28;;;0.28;;
55372;SDS011;70018;47.838;16.490;2024-03-23T15:16:39;0.25;;;0.25;;
55372;SDS011;70018;47.838;16.490;2024-03-23T15:19:05;0.68;;;0.50;;
55372;SDS011;70018;47.838;16.490;2024-03-23T15:21:31;0.30;;;0.30;;
55372;SDS011;70018;47.838;16.490;2024-03-23T15:23:57;0.68;;;0.30;;
55372;SDS011;70018;47.838;16.490;2024-03-23T15:26:23;0.30;;;0.30;;
55372;SDS011;70018;47.838;16.490;2024-03-23T15:28:49;0.32;;;0.20;;
55372;SDS011;70018;47.838;16.490;2024-03-23T15:31:24;0.38;;;0.38;;
55372;SDS011;70018;47.838;16.490;2024-03-23T15:33:50;0.65;;;0.47;;